createdAt,value
2023-04-19T00:01:39.110Z,9.62
2023-04-19T00:04:06.420Z,9.69
2023-04-19T00:06:34.423Z,9.74
2023-04-19T00:09:01.178Z,9.73
2023-04-19T00:11:28.344Z,9.74
2023-04-19T00:13:58.937Z,9.73
2023-04-19T00:16:25.935Z,9.69
2023-04-19T00:18:54.454Z,9.70
2023-04-19T00:21:21.402Z,9.68
2023-04-19T00:23:48.244Z,9.67
2023-04-19T00:26:16.055Z,9.73
2023-04-19T00:28:48.936Z,9.65
2023-04-19T00:31:16.009Z,9.66
2023-04-19T00:33:42.757Z,9.66
2023-04-19T00:36:09.968Z,9.63
2023-04-19T00:38:36.928Z,9.58
2023-04-19T00:41:03.949Z,9.62
2023-04-19T00:43:31.055Z,9.64
2023-04-19T00:46:02.503Z,9.58
2023-04-19T00:48:32.472Z,9.61
2023-04-19T00:51:01.523Z,9.59
2023-04-19T00:53:28.456Z,9.55
2023-04-19T00:56:02.260Z,9.54
2023-04-19T00:58:31.912Z,9.53
2023-04-19T01:00:59.113Z,9.51
2023-04-19T01:03:26.380Z,9.45
2023-04-19T01:05:53.917Z,9.47
2023-04-19T01:08:45.624Z,9.43
2023-04-19T01:11:37.519Z,9.38
2023-04-19T01:14:29.785Z,9.29
2023-04-19T01:17:22.105Z,9.15
2023-04-19T01:19:49.363Z,9.25
2023-04-19T01:22:21.378Z,9.31
2023-04-19T01:24:52.701Z,9.35
2023-04-19T01:27:19.701Z,9.35
2023-04-19T01:29:47.101Z,9.37
2023-04-19T01:32:15.611Z,9.38
2023-04-19T01:34:42.394Z,9.37
2023-04-19T01:37:09.965Z,9.31
2023-04-19T01:39:37.280Z,9.29
2023-04-19T01:42:04.257Z,9.28
2023-04-19T01:44:31.914Z,9.26
2023-04-19T01:47:03.602Z,9.23
2023-04-19T01:49:30.855Z,9.22
2023-04-19T01:51:57.872Z,9.18
2023-04-19T01:54:25.291Z,9.17
2023-04-19T01:56:52.983Z,9.12
2023-04-19T01:59:23.095Z,9.09
2023-04-19T02:01:51.472Z,9.08
2023-04-19T02:04:21.192Z,9.12
2023-04-19T02:06:52.491Z,9.10
2023-04-19T02:09:19.357Z,9.14
2023-04-19T02:11:47.106Z,9.10
2023-04-19T02:14:15.561Z,9.15
2023-04-19T02:16:42.478Z,9.16
2023-04-19T02:19:10.654Z,9.12
2023-04-19T02:21:38.869Z,9.11
2023-04-19T02:24:05.977Z,9.11
2023-04-19T02:26:33.080Z,9.13
2023-04-19T02:29:00.098Z,9.16
2023-04-19T02:31:27.063Z,9.13
2023-04-19T02:33:54.399Z,9.14
2023-04-19T02:36:23.076Z,9.09
2023-04-19T02:41:41.468Z,9.06
2023-04-19T02:44:08.338Z,9.07
2023-04-19T02:46:35.597Z,9.10
2023-04-19T02:49:02.842Z,9.04
2023-04-19T02:51:30.747Z,9.08
2023-04-19T02:53:57.986Z,9.13
2023-04-19T02:56:25.001Z,9.20
2023-04-19T02:58:54.670Z,9.26
2023-04-19T03:01:21.493Z,9.24
2023-04-19T03:03:50.855Z,9.26
2023-04-19T03:06:18.529Z,9.27
2023-04-19T03:08:45.929Z,9.28
2023-04-19T03:11:15.818Z,9.26
2023-04-19T03:13:44.416Z,9.28
2023-04-19T03:16:13.065Z,9.23
2023-04-19T03:18:42.431Z,9.27
2023-04-19T03:21:12.230Z,9.24
2023-04-19T03:23:50.925Z,9.26
2023-04-19T03:26:18.653Z,9.26
2023-04-19T03:28:47.607Z,9.26
2023-04-19T03:31:35.521Z,9.23
2023-04-19T03:34:04.310Z,9.25
2023-04-19T03:36:39.350Z,9.28
2023-04-19T03:39:08.240Z,9.24
2023-04-19T03:41:37.482Z,9.25
2023-04-19T03:44:14.828Z,9.23
2023-04-19T03:46:44.309Z,9.30
2023-04-19T03:49:11.249Z,9.31
2023-04-19T03:51:39.532Z,9.29
2023-04-19T03:54:09.688Z,9.29
2023-04-19T03:56:37.787Z,9.29
2023-04-19T03:59:06.399Z,9.26
2023-04-19T04:01:37.135Z,9.24
2023-04-19T04:04:05.303Z,9.24
2023-04-19T04:06:33.627Z,9.22
2023-04-19T04:09:01.583Z,9.23
2023-04-19T04:14:20.181Z,9.19
2023-04-19T04:16:47.238Z,9.11
2023-04-19T04:19:16.338Z,9.06
2023-04-19T04:21:43.515Z,9.14
2023-04-19T04:24:11.447Z,9.15
2023-04-19T04:26:57.400Z,9.14
2023-04-19T04:29:28.937Z,9.18
2023-04-19T04:31:59.187Z,9.17
2023-04-19T04:34:31.430Z,9.10
2023-04-19T04:37:08.538Z,9.19
2023-04-19T04:39:36.534Z,9.19
2023-04-19T04:42:03.353Z,9.24
2023-04-19T04:44:32.480Z,9.17
2023-04-19T04:46:59.424Z,9.23
2023-04-19T04:49:30.191Z,9.27
2023-04-19T04:51:58.696Z,9.27
2023-04-19T04:54:27.662Z,9.28
2023-04-19T04:56:56.413Z,9.30
2023-04-19T04:59:23.499Z,9.31
2023-04-19T05:01:51.740Z,9.38
2023-04-19T05:04:19.636Z,9.38
2023-04-19T05:06:47.061Z,9.37
2023-04-19T05:09:19.638Z,9.39
2023-04-19T05:11:47.562Z,9.37
2023-04-19T05:14:14.598Z,9.40
2023-04-19T05:16:43.025Z,9.38
2023-04-19T05:22:06.554Z,9.34
2023-04-19T05:24:40.097Z,9.32
2023-04-19T05:27:10.493Z,9.30
2023-04-19T05:29:37.640Z,9.28
2023-04-19T05:32:06.054Z,9.27
2023-04-19T05:34:36.798Z,9.25
2023-04-19T05:37:06.575Z,9.28
2023-04-19T05:39:34.657Z,9.28
2023-04-19T05:42:01.697Z,9.30
2023-04-19T05:44:29.592Z,9.27
2023-04-19T05:46:56.469Z,9.28
2023-04-19T05:49:50.638Z,9.24
2023-04-19T05:52:28.618Z,9.26
2023-04-19T05:54:59.742Z,9.26
2023-04-19T05:57:27.950Z,9.28
2023-04-19T05:59:55.108Z,9.30
2023-04-19T06:02:25.745Z,9.30
2023-04-19T06:04:54.158Z,9.37
2023-04-19T06:07:31.722Z,9.38
2023-04-19T06:10:00.054Z,9.44
2023-04-19T06:12:27.000Z,9.50
2023-04-19T06:14:55.009Z,9.55
2023-04-19T06:17:22.412Z,9.58
2023-04-19T06:19:53.361Z,9.59
2023-04-19T06:22:20.755Z,9.63
2023-04-19T06:24:48.626Z,9.58
2023-04-19T06:27:17.276Z,9.58
2023-04-19T06:29:44.568Z,9.61
2023-04-19T06:32:11.571Z,9.56
2023-04-19T06:34:38.365Z,9.53
2023-04-19T06:37:08.498Z,9.48
2023-04-19T06:39:35.394Z,9.45
2023-04-19T06:42:02.254Z,9.47
2023-04-19T06:44:31.483Z,9.48
2023-04-19T06:46:58.988Z,9.46
2023-04-19T06:49:26.548Z,9.43
2023-04-19T06:51:53.535Z,9.42
2023-04-19T06:54:20.462Z,9.40
2023-04-19T06:56:50.007Z,9.44
2023-04-19T06:59:19.288Z,9.42
2023-04-19T07:01:47.834Z,9.42
2023-04-19T07:04:16.031Z,9.42
2023-04-19T07:06:43.118Z,9.36
2023-04-19T07:09:36.499Z,9.39
2023-04-19T07:12:03.959Z,9.38
2023-04-19T07:14:31.572Z,9.33
2023-04-19T07:16:58.888Z,9.31
2023-04-19T07:19:26.516Z,9.30
2023-04-19T07:21:54.073Z,9.31
2023-04-19T07:24:21.476Z,9.32
2023-04-19T07:26:48.314Z,9.31
2023-04-19T07:29:15.555Z,9.28
2023-04-19T07:31:42.978Z,9.30
2023-04-19T07:34:09.967Z,9.27
2023-04-19T07:36:36.872Z,9.30
2023-04-19T07:39:03.908Z,9.34
2023-04-19T07:41:36.300Z,9.38
2023-04-19T07:44:05.035Z,9.34
2023-04-19T07:46:32.138Z,9.37
2023-04-19T07:48:59.191Z,9.37
2023-04-19T07:51:51.444Z,9.40
2023-04-19T07:54:18.522Z,9.40
2023-04-19T07:56:45.591Z,9.40
2023-04-19T07:59:12.455Z,9.41
2023-04-19T08:02:04.649Z,9.40
2023-04-19T08:04:32.219Z,9.41
2023-04-19T08:06:59.127Z,9.38
2023-04-19T08:09:28.593Z,9.44
2023-04-19T08:11:55.268Z,9.48
2023-04-19T08:14:34.618Z,9.43
2023-04-19T08:19:39.864Z,9.46
2023-04-19T08:22:07.808Z,9.45
2023-04-19T08:24:34.984Z,9.44
2023-04-19T08:27:01.750Z,9.42
2023-04-19T08:29:32.653Z,9.43
2023-04-19T08:32:00.004Z,9.43
2023-04-19T08:34:26.867Z,9.43
2023-04-19T08:37:03.446Z,9.38
2023-04-19T08:39:35.529Z,9.38
2023-04-19T08:42:15.514Z,9.40
2023-04-19T08:45:13.774Z,9.41
2023-04-19T08:50:24.619Z,9.45
2023-04-19T08:53:12.276Z,9.47
2023-04-19T08:56:08.751Z,9.45
2023-04-19T08:58:57.086Z,9.44
2023-04-19T09:01:35.490Z,9.45
2023-04-19T09:04:34.029Z,9.41
2023-04-19T09:06:55.934Z,9.30
2023-04-19T09:10:05.541Z,9.37
2023-04-19T09:12:32.957Z,9.41
2023-04-19T09:15:01.689Z,9.41
2023-04-19T09:17:30.281Z,9.40
2023-04-19T09:19:58.917Z,9.41
2023-04-19T09:22:26.053Z,9.42
2023-04-19T09:27:31.467Z,9.40
2023-04-19T09:30:01.884Z,9.38
2023-04-19T09:32:32.732Z,9.40
2023-04-19T09:35:43.376Z,9.46
2023-04-19T09:38:12.547Z,9.45
2023-04-19T09:40:40.548Z,9.45
2023-04-19T09:43:32.994Z,9.50
2023-04-19T09:45:55.054Z,9.50
2023-04-19T09:48:23.129Z,9.47
2023-04-19T09:51:05.886Z,9.47
2023-04-19T09:53:34.880Z,9.49
2023-04-19T09:56:03.420Z,9.52
2023-04-19T09:58:46.335Z,9.53
2023-04-19T10:01:20.064Z,9.57
2023-04-19T10:03:49.789Z,9.55
2023-04-19T10:08:50.510Z,9.45
2023-04-19T10:11:18.836Z,9.42
2023-04-19T10:13:49.137Z,9.27
2023-04-19T10:16:20.238Z,9.44
2023-04-19T10:18:50.770Z,9.62
2023-04-19T10:21:19.842Z,9.62
2023-04-19T10:23:47.719Z,9.67
2023-04-19T10:26:14.471Z,9.74
2023-04-19T10:28:42.606Z,9.74
2023-04-19T10:31:12.669Z,9.78
2023-04-19T10:33:40.551Z,9.78
2023-04-19T10:36:14.220Z,9.81
2023-04-19T10:38:43.131Z,9.88
2023-04-19T10:41:10.738Z,9.91
2023-04-19T10:44:08.515Z,9.94
2023-04-19T10:46:35.319Z,9.95
2023-04-19T10:49:04.162Z,9.92
2023-04-19T10:51:36.393Z,9.92
2023-04-19T10:54:05.809Z,9.91
2023-04-19T10:56:35.332Z,9.85
2023-04-19T10:59:02.284Z,9.76
2023-04-19T11:01:53.414Z,9.71
2023-04-19T11:04:33.728Z,9.51
2023-04-19T11:07:03.521Z,9.47
2023-04-19T11:09:38.456Z,9.37
2023-04-19T11:12:06.442Z,9.43
2023-04-19T11:14:36.532Z,9.49
2023-04-19T11:17:14.874Z,9.57
2023-04-19T11:19:45.619Z,9.59
2023-04-19T11:22:12.408Z,9.57
2023-04-19T11:24:46.633Z,9.52
2023-04-19T11:27:13.507Z,9.58
2023-04-19T11:29:40.211Z,9.67
2023-04-19T11:32:08.598Z,9.75
2023-04-19T11:34:39.290Z,9.79
2023-04-19T11:37:09.750Z,9.78
2023-04-19T11:39:45.296Z,9.74
2023-04-19T11:42:20.555Z,9.63
2023-04-19T11:44:55.009Z,9.63
2023-04-19T11:47:24.437Z,9.60
2023-04-19T11:49:51.202Z,9.69
2023-04-19T11:52:27.568Z,9.76
2023-04-19T11:54:54.538Z,9.87
2023-04-19T11:57:34.486Z,9.92
2023-04-19T12:00:07.226Z,9.92
2023-04-19T12:02:43.544Z,9.95
2023-04-19T12:05:15.548Z,10.04
2023-04-19T12:08:18.565Z,10.06
2023-04-19T12:11:10.401Z,10.08
2023-04-19T12:13:37.676Z,10.13
2023-04-19T12:16:05.445Z,10.17
2023-04-19T12:18:47.693Z,10.21
2023-04-19T12:21:28.429Z,10.23
2023-04-19T12:23:57.542Z,10.21
2023-04-19T12:26:26.473Z,10.19
2023-04-19T12:28:54.336Z,10.18
2023-04-19T12:31:24.555Z,10.19
2023-04-19T12:33:51.427Z,10.17
2023-04-19T12:36:18.418Z,10.09
2023-04-19T12:38:48.577Z,10.01
2023-04-19T12:41:15.364Z,9.92
2023-04-19T12:43:45.549Z,9.88
2023-04-19T12:46:37.724Z,9.90
2023-04-19T12:51:57.589Z,9.87
2023-04-19T12:54:24.392Z,9.90
2023-04-19T12:56:53.519Z,9.88
2023-04-19T12:59:20.217Z,9.89
2023-04-19T13:01:48.579Z,9.86
2023-04-19T13:04:16.114Z,9.83
2023-04-19T13:06:45.861Z,9.83
2023-04-19T13:09:15.087Z,9.81
2023-04-19T13:11:43.102Z,9.81
2023-04-19T13:14:09.963Z,9.80
2023-04-19T13:16:43.516Z,9.82
2023-04-19T13:19:10.284Z,9.84
2023-04-19T13:21:37.186Z,9.88
2023-04-19T13:24:05.269Z,9.88
2023-04-19T13:26:33.592Z,9.87
2023-04-19T13:29:00.585Z,9.83
2023-04-19T13:31:29.781Z,9.79
2023-04-19T13:33:57.338Z,9.74
2023-04-19T13:36:24.628Z,9.78
2023-04-19T13:38:51.448Z,9.79
2023-04-19T13:41:19.494Z,9.82
2023-04-19T13:43:46.615Z,9.81
2023-04-19T13:46:14.399Z,9.88
2023-04-19T13:48:42.124Z,9.92
2023-04-19T13:51:09.040Z,9.94
2023-04-19T13:53:36.568Z,9.95
2023-04-19T13:56:03.913Z,9.96
2023-04-19T13:58:33.954Z,9.98
2023-04-19T14:01:00.910Z,10.01
2023-04-19T14:03:28.165Z,10.03
2023-04-19T14:05:55.272Z,10.01
2023-04-19T14:08:22.593Z,10.03
2023-04-19T14:10:50.626Z,10.02
2023-04-19T14:13:17.516Z,10.04
2023-04-19T14:15:44.537Z,10.05
2023-04-19T14:18:11.357Z,10.07
2023-04-19T14:20:38.218Z,10.04
2023-04-19T14:23:06.681Z,10.06
2023-04-19T14:25:33.453Z,10.06
2023-04-19T14:28:05.401Z,10.06
2023-04-19T14:30:33.403Z,10.10
2023-04-19T14:33:00.439Z,10.10
2023-04-19T14:35:27.852Z,10.11
2023-04-19T14:37:55.080Z,10.10
2023-04-19T14:40:22.086Z,10.12
2023-04-19T14:42:48.811Z,10.13
2023-04-19T14:45:15.814Z,10.11
2023-04-19T14:47:42.838Z,10.02
2023-04-19T14:50:10.251Z,9.98
2023-04-19T14:52:36.964Z,9.98
2023-04-19T14:55:04.786Z,9.94
2023-04-19T14:57:31.791Z,9.91
2023-04-19T14:59:58.703Z,9.93
2023-04-19T15:02:28.679Z,9.92
2023-04-19T15:04:56.866Z,9.88
2023-04-19T15:07:23.885Z,9.84
2023-04-19T15:09:51.452Z,9.87
2023-04-19T15:12:19.625Z,9.90
2023-04-19T15:14:46.321Z,9.94
2023-04-19T15:17:14.556Z,9.96
2023-04-19T15:19:41.932Z,10.02
2023-04-19T15:22:10.085Z,10.05
2023-04-19T15:24:36.938Z,10.13
2023-04-19T15:27:05.667Z,10.19
2023-04-19T15:29:32.486Z,10.16
2023-04-19T15:31:59.164Z,10.22
2023-04-19T15:34:27.672Z,10.20
2023-04-19T15:36:55.082Z,10.17
2023-04-19T15:42:14.562Z,10.13
2023-04-19T15:44:42.811Z,10.06
2023-04-19T15:47:12.746Z,10.03
2023-04-19T15:49:39.560Z,10.03
2023-04-19T15:52:08.849Z,10.03
2023-04-19T15:54:35.596Z,10.04
2023-04-19T15:57:06.046Z,10.01
2023-04-19T15:59:33.332Z,9.98
2023-04-19T16:02:01.169Z,9.93
2023-04-19T16:04:30.649Z,9.90
2023-04-19T16:06:58.001Z,9.89
2023-04-19T16:09:25.620Z,9.94
2023-04-19T16:11:53.929Z,9.94
2023-04-19T16:14:21.987Z,9.95
2023-04-19T16:16:49.028Z,9.92
2023-04-19T16:19:17.265Z,9.90
2023-04-19T16:21:45.635Z,9.89
2023-04-19T16:24:12.442Z,9.92
2023-04-19T16:26:39.154Z,9.87
2023-04-19T16:29:06.771Z,9.78
2023-04-19T16:31:34.968Z,9.79
2023-04-19T16:34:02.550Z,9.79
2023-04-19T16:36:29.583Z,9.76
2023-04-19T16:38:57.087Z,9.72
2023-04-19T16:41:23.777Z,9.68
2023-04-19T16:43:51.182Z,9.62
2023-04-19T16:46:18.430Z,9.65
2023-04-19T16:48:49.550Z,9.66
2023-04-19T16:51:16.407Z,9.68
2023-04-19T16:53:43.692Z,9.58
2023-04-19T16:56:12.293Z,9.56
2023-04-19T16:58:39.586Z,9.65
2023-04-19T17:03:59.413Z,9.68
2023-04-19T17:06:26.714Z,9.64
2023-04-19T17:08:55.194Z,9.66
2023-04-19T17:11:25.568Z,9.62
2023-04-19T17:13:54.685Z,9.59
2023-04-19T17:16:23.572Z,9.59
2023-04-19T17:18:50.591Z,9.60
2023-04-19T17:21:17.638Z,9.56
2023-04-19T17:23:45.902Z,9.53
2023-04-19T17:26:16.697Z,9.56
2023-04-19T17:28:46.841Z,9.50
2023-04-19T17:31:15.858Z,9.44
2023-04-19T17:34:08.314Z,9.42
2023-04-19T17:36:36.644Z,9.42
2023-04-19T17:39:05.531Z,9.38
2023-04-19T17:41:33.206Z,9.36
2023-04-19T17:44:02.820Z,9.33
2023-04-19T17:46:30.797Z,9.25
2023-04-19T17:48:57.628Z,9.25
2023-04-19T17:51:26.010Z,9.23
2023-04-19T17:53:53.606Z,9.18
2023-04-19T17:56:21.925Z,9.13
2023-04-19T17:58:52.252Z,9.18
2023-04-19T18:01:19.660Z,9.19
2023-04-19T18:03:51.998Z,9.15
2023-04-19T18:06:21.723Z,9.07
2023-04-19T18:08:48.993Z,9.10
2023-04-19T18:11:19.891Z,8.98
2023-04-19T18:13:48.817Z,9.01
2023-04-19T18:16:16.016Z,8.85
2023-04-19T18:18:45.826Z,8.85
2023-04-19T18:21:14.318Z,8.87
2023-04-19T18:23:43.784Z,8.99
2023-04-19T18:26:12.057Z,8.96
2023-04-19T18:28:39.894Z,8.90
2023-04-19T18:31:08.504Z,8.95
2023-04-19T18:33:36.978Z,8.95
2023-04-19T18:36:07.169Z,8.92
2023-04-19T18:38:34.938Z,8.97
2023-04-19T18:46:33.207Z,8.94
2023-04-19T18:49:00.301Z,8.91
2023-04-19T18:51:28.109Z,8.87
2023-04-19T18:53:55.682Z,8.80
2023-04-19T18:59:16.862Z,8.72
2023-04-19T19:01:47.099Z,8.75
2023-04-19T19:04:42.963Z,8.65
2023-04-19T19:07:34.363Z,8.48
2023-04-19T19:12:45.530Z,8.56
2023-04-19T19:15:16.283Z,8.49
2023-04-19T19:17:49.210Z,8.52
2023-04-19T19:20:25.168Z,8.55
2023-04-19T19:22:54.684Z,8.62
2023-04-19T19:25:24.201Z,8.60
2023-04-19T19:28:06.375Z,8.56
2023-04-19T19:30:37.764Z,8.56
2023-04-19T19:33:06.938Z,8.51
2023-04-19T19:35:40.065Z,8.29
2023-04-19T19:38:11.012Z,8.25
2023-04-19T19:41:11.129Z,8.22
2023-04-19T19:43:32.441Z,8.18
2023-04-19T19:46:08.427Z,8.13
2023-04-19T19:48:42.517Z,8.07
2023-04-19T19:53:47.215Z,8.03
2023-04-19T19:56:22.141Z,8.11
2023-04-19T19:58:52.217Z,8.19
2023-04-19T20:01:22.597Z,8.26
2023-04-19T20:03:51.332Z,8.13
2023-04-19T20:07:07.810Z,8.04
2023-04-19T20:09:09.197Z,8.01
2023-04-19T20:11:36.201Z,8.03
2023-04-19T20:14:03.958Z,7.91
2023-04-19T20:16:32.655Z,7.97
2023-04-19T20:18:59.827Z,8.01
2023-04-19T20:21:28.055Z,8.15
2023-04-19T20:23:55.898Z,8.20
2023-04-19T20:26:23.859Z,8.22
2023-04-19T20:28:52.839Z,8.18
2023-04-19T20:31:45.132Z,8.14
2023-04-19T20:34:14.046Z,8.07
2023-04-19T20:36:42.276Z,8.05
2023-04-19T20:39:13.868Z,7.99
2023-04-19T20:41:47.561Z,7.81
2023-04-19T20:44:17.139Z,7.86
2023-04-19T20:46:45.062Z,7.83
2023-04-19T20:49:13.068Z,7.76
2023-04-19T20:51:40.111Z,7.63
2023-04-19T20:54:07.524Z,7.50
2023-04-19T20:56:34.770Z,7.66
2023-04-19T20:59:02.134Z,7.55
2023-04-19T21:01:28.881Z,7.52
2023-04-19T21:03:57.565Z,7.50
2023-04-19T21:06:24.900Z,7.44
2023-04-19T21:08:51.831Z,7.50
2023-04-19T21:11:19.948Z,7.44
2023-04-19T21:13:47.013Z,7.41
2023-04-19T21:16:14.185Z,7.31
2023-04-19T21:18:41.079Z,7.37
2023-04-19T21:21:08.571Z,7.42
2023-04-19T21:23:36.131Z,7.44
2023-04-19T21:26:03.730Z,7.46
2023-04-19T21:28:30.541Z,7.45
2023-04-19T21:30:57.500Z,7.41
2023-04-19T21:33:24.752Z,7.22
2023-04-19T21:35:51.728Z,7.15
2023-04-19T21:38:19.349Z,7.32
2023-04-19T21:40:47.682Z,7.25
2023-04-19T21:43:17.127Z,7.21
2023-04-19T21:45:44.153Z,7.37
2023-04-19T21:48:10.966Z,7.39
2023-04-19T21:50:38.075Z,7.40
2023-04-19T21:53:05.033Z,7.42
2023-04-19T21:55:31.906Z,7.51
2023-04-19T21:57:59.176Z,7.53
2023-04-19T22:00:27.753Z,7.55
2023-04-19T22:02:54.597Z,7.56
2023-04-19T22:05:22.115Z,7.50
2023-04-19T22:07:49.293Z,7.51
2023-04-19T22:10:18.466Z,7.46
2023-04-19T22:12:57.410Z,7.48
2023-04-19T22:15:27.339Z,7.46
2023-04-19T22:17:54.284Z,7.44
2023-04-19T22:20:22.194Z,7.44
2023-04-19T22:22:52.765Z,7.40
2023-04-19T22:25:21.416Z,7.43
2023-04-19T22:27:49.148Z,7.38
2023-04-19T22:30:16.825Z,7.36
2023-04-19T22:32:43.828Z,7.29
2023-04-19T22:35:10.649Z,7.43
2023-04-19T22:37:37.627Z,7.44
2023-04-19T22:40:05.016Z,7.40
2023-04-19T22:42:31.845Z,7.42
2023-04-19T22:44:58.734Z,7.42
2023-04-19T22:47:27.302Z,7.58
2023-04-19T22:49:54.752Z,7.60
2023-04-19T22:52:22.223Z,7.61
2023-04-19T22:54:49.089Z,7.61
2023-04-19T22:57:17.032Z,7.62
2023-04-19T22:59:43.864Z,7.62
2023-04-19T23:02:36.408Z,7.62
2023-04-19T23:05:08.764Z,7.61
2023-04-19T23:07:35.723Z,7.56
2023-04-19T23:10:02.676Z,7.51
2023-04-19T23:12:29.534Z,7.46
2023-04-19T23:14:56.432Z,7.43
2023-04-19T23:17:23.393Z,7.46
2023-04-19T23:19:50.197Z,7.48
2023-04-19T23:22:17.087Z,7.50
2023-04-19T23:24:44.026Z,7.52
2023-04-19T23:27:10.725Z,7.57
2023-04-19T23:29:38.091Z,7.59
2023-04-19T23:32:05.728Z,7.58
2023-04-19T23:34:32.616Z,7.56
2023-04-19T23:37:00.920Z,7.52
2023-04-19T23:39:27.652Z,7.53
2023-04-19T23:41:57.854Z,7.33
2023-04-19T23:44:24.874Z,7.27
2023-04-19T23:46:53.239Z,7.32
2023-04-19T23:49:20.716Z,7.33
2023-04-19T23:51:49.380Z,7.46
2023-04-19T23:54:17.476Z,7.49
2023-04-19T23:56:44.234Z,7.52
2023-04-19T23:59:11.282Z,7.51
